CST,Max TemperatureF,Mean TemperatureF,Min TemperatureF,Max Dew PointF,MeanDew PointF,Min DewpointF,Max Humidity, Mean Humidity, Min Humidity, Max Sea Level PressureIn, Mean Sea Level PressureIn, Min Sea Level PressureIn, Max VisibilityMiles, Mean VisibilityMiles, Min VisibilityMiles, Max Wind SpeedMPH, Mean Wind SpeedMPH, Max Gust SpeedMPH,PrecipitationIn, CloudCover, Events, WindDirDegrees
2013-11-1,73,61,49,54,49,44,93,64,35,29.94,29.89,29.85,10,10,10,14,5,16,0.00,0,,260
2013-11-2,64,54,43,49,44,40,89,66,43,30.24,30.11,29.93,10,10,10,20,9,24,0.00,0,,336
2013-11-3,62,51,39,45,40,36,100,70,39,30.32,30.25,30.18,10,8,2,15,5,20,0.00,0,,80
2013-11-4,70,58,46,51,48,43,86,67,47,30.29,30.23,30.19,10,10,8,17,7,22,0.00,0,,131
2013-11-5,75,66,56,58,54,50,83,70,57,30.26,30.19,30.13,10,10,10,21,11,26,0.00,5,,128
2013-11-6,72,61,49,67,57,44,93,83,73,30.27,30.12,30.03,10,8,2,22,10,26,0.35,7,Rain,262
2013-11-7,58,49,40,43,39,35,89,66,43,30.44,30.38,30.29,10,10,10,23,10,30,0.00,2,,6
2013-11-8,62,49,36,48,41,36,100,73,46,30.42,30.34,30.23,10,8,1,9,2,13,0.00,0,,133
2013-11-9,58,53,47,52,47,42,93,75,57,30.32,30.28,30.24,10,10,9,8,1,12,0.01,4,Rain,165
2013-11-10,71,59,47,51,49,46,93,69,44,30.37,30.31,30.28,10,8,0,10,3,14,0.01,3,Fog,360
2013-11-11,72,59,45,51,48,44,93,67,41,30.32,30.26,30.19,10,10,10,8,2,12,0.00,0,,8
2013-11-12,54,44,34,49,37,23,100,71,42,30.67,30.44,30.23,10,8,1,30,15,43,0.00,2,,12
2013-11-13,50,39,28,28,24,21,92,62,32,30.71,30.61,30.48,10,10,10,18,7,24,0.00,0,,38
2013-11-14,59,42,24,40,28,21,92,58,24,30.46,30.33,30.18,10,10,8,15,4,20,0.00,0,,145
2013-11-15,64,55,45,54,49,40,100,84,67,30.18,30.10,30.02,10,9,6,14,6,17,0.12,4,Rain,130
2013-11-16,73,64,54,66,59,53,100,87,73,30.05,29.99,29.89,10,5,0,18,10,25,T,7,Fog-Rain,152
2013-11-17,80,74,67,72,68,57,97,88,79,30.01,29.84,29.77,10,8,2,37,13,45,0.45,6,Rain,190
2013-11-18,67,59,50,50,41,36,77,57,37,30.23,30.15,30.02,10,10,10,15,9,17,0.00,1,,21
2013-11-19,58,50,41,39,34,31,76,57,38,30.32,30.23,30.17,10,10,10,16,7,21,0.00,0,,35
2013-11-20,66,51,35,44,37,32,89,62,34,30.19,30.14,30.08,10,10,10,13,6,17,0.00,0,,113
2013-11-21,68,58,48,61,55,45,93,82,71,30.21,30.16,30.11,10,8,2,18,10,23,0.32,6,Rain,130
2013-11-22,64,56,47,61,56,43,93,87,80,30.36,30.25,30.14,10,6,2,22,13,26,0.58,8,Rain-Thunderstorm,24
2013-11-23,47,41,34,44,37,21,96,77,57,30.55,30.42,30.33,10,6,2,23,16,30,0.61,6,Rain,14
2013-11-24,39,34,29,25,23,20,75,66,56,30.65,30.54,30.44,10,10,10,24,15,30,0.00,0,,25
2013-11-25,38,36,34,36,32,24,92,78,64,30.42,30.26,30.09,10,8,4,16,8,20,0.99,8,Rain,33
2013-11-26,44,41,38,37,35,31,92,81,70,30.18,30.02,29.90,10,8,2,26,15,33,0.09,8,Rain-Snow,357
2013-11-27,40,33,26,28,22,20,81,63,44,30.46,30.36,30.19,10,10,10,24,11,30,0.00,0,,353
2013-11-28,45,35,24,31,25,20,88,64,40,30.54,30.49,30.45,10,10,10,9,2,12,0.00,0,,170
2013-11-29,55,40,24,34,30,23,92,67,41,30.59,30.53,30.46,10,10,7,6,1,9,0.00,0,,134
2013-11-30,62,45,27,36,31,25,100,64,27,30.48,30.38,30.27,10,10,5,13,4,16,0.00,0,,178